メインページ
METAR-TAF:

METAR-TAF

空港 :

ニューデリー, インド

インディラ・ガンディー国際空港

緯度: 28-34N, 経度: 077-07E, 海抜: 220m

現時点の気象観測

当レポートは34分前の16:00(UTC)に作成
北西の風 5kt
気温 31°C
湿度 63%
気圧 1002 hPa
視程: 4500m
煙霧

METAR: VIDP 221600Z 31005KT 4500 HZ NSC 31/23 Q1002 NOSIG

時間: 22:04 (16:34 UTC)

予報

当レポートは5時間34分前の11:00(UTC)に作成
予報は22日の 12時(UTC)から 23日の 18時(UTC)まで有効
西の風 8kt
視程: 4500m
高度4000ftの雲はほとんどない
高度10000ftの雲は散在している
煙霧
22日の 15時(UTC)から 22日の 18時(UTC)まで徐々に
変向風 2kt
視程: 3000m
煙霧
22日の 21時(UTC)から 23日の 03時(UTC)まで一時的に
西の風 10kt、最大20ktの突風を伴う
視程: 2500m
高度4000ftの雲は散在している
高度4000ftの雲はほとんどない, 積乱雲.
高度9000ftの雲は散在している
激しい雷雨, 小雨
23日の 04時(UTC)から 24日の 06時(UTC)まで徐々に
西/北西の風 5kt
視程: 3500m
高度4000ftの雲は散在している
高度10000ftの千切れ雲あり
煙霧

TAF: VIDP 221100Z 2212/2318 27008KT 4500 HZ FEW040 SCT100 BECMG 2215/2218 VRB02KT 3000 HZ TEMPO 2221/2303 27010G20KT 2500 -TSRA SCT040 FEW040CB SCT090 BECMG 2304/2406 30005KT 3500 HZ SCT040 BKN100

4,000以上の空港の気象観測と天気予報(METAR報とTAF報)

利用可能な観測所は地図上に黄色い丸と赤い丸で示す。

丸の上にカーソルを重ねると観測所名を参照できる。

次にクリックすると気象観測と天気予報を参照できる。

マップの切り替え:黒色「×」印の緑ボタンをクリックして拡大、「-」印の緑ボタンをクリックして縮小、緑色の三角印をクリックして隣りの地図に切り替え


METAR-TAF: